sensor_id;sensor_type;location;lat;lon;timestamp;pressure;altitude;pressure_sealevel;temperature;humidity
19672;BME280;9983;51.114;13.788;2023-05-08T00:01:55;100229.66;;;10.02;83.60
19672;BME280;9983;51.114;13.788;2023-05-08T00:06:55;100234.44;;;9.63;86.63
19672;BME280;9983;51.114;13.788;2023-05-08T00:11:55;100247.63;;;9.19;89.25
19672;BME280;9983;51.114;13.788;2023-05-08T00:16:55;100246.97;;;9.07;90.19
19672;BME280;9983;51.114;13.788;2023-05-08T00:21:56;100239.94;;;8.50;93.96
19672;BME280;9983;51.114;13.788;2023-05-08T00:26:56;100238.44;;;8.94;91.57
19672;BME280;9983;51.114;13.788;2023-05-08T00:31:56;100233.75;;;8.11;95.71
19672;BME280;9983;51.114;13.788;2023-05-08T00:36:56;100234.56;;;8.21;96.10
19672;BME280;9983;51.114;13.788;2023-05-08T00:41:57;100225.47;;;8.33;94.54
19672;BME280;9983;51.114;13.788;2023-05-08T00:46:57;100225.03;;;8.09;98.25
19672;BME280;9983;51.114;13.788;2023-05-08T00:51:57;100224.19;;;8.37;94.85
19672;BME280;9983;51.114;13.788;2023-05-08T00:56:59;100229.25;;;8.41;95.34
19672;BME280;9983;51.114;13.788;2023-05-08T01:02:00;100234.59;;;7.92;99.25
19672;BME280;9983;51.114;13.788;2023-05-08T01:07:01;100238.03;;;7.64;100.00
19672;BME280;9983;51.114;13.788;2023-05-08T01:12:20;100235.16;;;7.27;100.00
19672;BME280;9983;51.114;13.788;2023-05-08T01:33:57;100251.47;;;7.03;100.00
19672;BME280;9983;51.114;13.788;2023-05-08T01:39:17;100254.34;;;7.21;100.00
19672;BME280;9983;51.114;13.788;2023-05-08T01:44:23;100256.91;;;7.32;100.00
19672;BME280;9983;51.114;13.788;2023-05-08T01:49:33;100261.91;;;7.16;100.00
19672;BME280;9983;51.114;13.788;2023-05-08T01:54:42;100251.16;;;6.97;100.00
19672;BME280;9983;51.114;13.788;2023-05-08T01:59:44;100268.22;;;6.84;100.00
19672;BME280;9983;51.114;13.788;2023-05-08T02:04:46;100261.19;;;6.83;100.00
19672;BME280;9983;51.114;13.788;2023-05-08T02:09:47;100259.66;;;6.60;100.00
19672;BME280;9983;51.114;13.788;2023-05-08T02:14:48;100247.25;;;7.01;100.00
19672;BME280;9983;51.114;13.788;2023-05-08T02:19:53;100255.59;;;6.86;100.00
19672;BME280;9983;51.114;13.788;2023-05-08T02:24:56;100254.91;;;6.84;100.00
19672;BME280;9983;51.114;13.788;2023-05-08T02:29:57;100255.75;;;6.64;100.00
19672;BME280;9983;51.114;13.788;2023-05-08T02:34:58;100255.81;;;6.32;100.00
19672;BME280;9983;51.114;13.788;2023-05-08T02:40:00;100254.06;;;6.42;100.00
19672;BME280;9983;51.114;13.788;2023-05-08T02:45:02;100253.19;;;6.63;100.00
19672;BME280;9983;51.114;13.788;2023-05-08T02:50:08;100261.31;;;6.61;100.00
19672;BME280;9983;51.114;13.788;2023-05-08T03:00:37;100254.56;;;6.57;100.00
19672;BME280;9983;51.114;13.788;2023-05-08T03:05:44;100263.53;;;6.56;100.00
19672;BME280;9983;51.114;13.788;2023-05-08T03:10:50;100274.50;;;5.89;100.00
19672;BME280;9983;51.114;13.788;2023-05-08T03:15:57;100263.44;;;6.05;100.00
19672;BME280;9983;51.114;13.788;2023-05-08T03:20:59;100273.66;;;6.21;100.00
19672;BME280;9983;51.114;13.788;2023-05-08T03:26:00;100262.44;;;6.38;99.87
19672;BME280;9983;51.114;13.788;2023-05-08T03:31:03;100274.97;;;5.83;100.00
19672;BME280;9983;51.114;13.788;2023-05-08T03:36:04;100271.88;;;5.56;100.00
19672;BME280;9983;51.114;13.788;2023-05-08T03:41:05;100271.88;;;5.56;100.00
19672;BME280;9983;51.114;13.788;2023-05-08T03:46:06;100275.22;;;5.80;100.00
19672;BME280;9983;51.114;13.788;2023-05-08T03:51:06;100277.41;;;5.75;100.00
19672;BME280;9983;51.114;13.788;2023-05-08T03:56:07;100276.22;;;5.68;100.00
19672;BME280;9983;51.114;13.788;2023-05-08T04:01:14;100284.00;;;5.15;100.00
19672;BME280;9983;51.114;13.788;2023-05-08T04:06:24;100276.25;;;5.23;100.00
19672;BME280;9983;51.114;13.788;2023-05-08T04:16:37;100289.06;;;5.41;100.00
19672;BME280;9983;51.114;13.788;2023-05-08T04:21:41;100291.50;;;5.44;100.00
19672;BME280;9983;51.114;13.788;2023-05-08T04:26:42;100297.28;;;5.49;100.00
19672;BME280;9983;51.114;13.788;2023-05-08T04:31:44;100290.09;;;5.83;100.00
19672;BME280;9983;51.114;13.788;2023-05-08T04:36:44;100295.31;;;5.73;100.00
19672;BME280;9983;51.114;13.788;2023-05-08T04:41:45;100299.69;;;6.17;100.00
19672;BME280;9983;51.114;13.788;2023-05-08T04:46:46;100311.19;;;6.18;100.00
19672;BME280;9983;51.114;13.788;2023-05-08T04:51:49;100310.09;;;6.52;100.00
19672;BME280;9983;51.114;13.788;2023-05-08T04:56:49;100304.75;;;6.52;100.00
19672;BME280;9983;51.114;13.788;2023-05-08T05:01:49;100311.31;;;7.10;100.00
19672;BME280;9983;51.114;13.788;2023-05-08T05:06:49;100310.97;;;7.74;100.00
19672;BME280;9983;51.114;13.788;2023-05-08T05:11:50;100307.97;;;8.08;100.00
19672;BME280;9983;51.114;13.788;2023-05-08T05:16:50;100315.56;;;8.22;96.65
19672;BME280;9983;51.114;13.788;2023-05-08T05:21:50;100314.78;;;8.60;95.40
19672;BME280;9983;51.114;13.788;2023-05-08T05:26:51;100318.09;;;8.81;91.57
19672;BME280;9983;51.114;13.788;2023-05-08T05:31:51;100317.81;;;9.03;89.71
19672;BME280;9983;51.114;13.788;2023-05-08T05:36:51;100323.38;;;9.20;88.16
19672;BME280;9983;51.114;13.788;2023-05-08T05:41:52;100324.50;;;9.27;86.32
19672;BME280;9983;51.114;13.788;2023-05-08T05:46:53;100329.19;;;9.52;82.54
19672;BME280;9983;51.114;13.788;2023-05-08T05:51:53;100328.50;;;9.77;82.33
19672;BME280;9983;51.114;13.788;2023-05-08T05:56:53;100325.59;;;9.88;78.55
19672;BME280;9983;51.114;13.788;2023-05-08T06:01:53;100328.09;;;10.00;77.70
19672;BME280;9983;51.114;13.788;2023-05-08T06:06:54;100332.53;;;10.09;77.05
19672;BME280;9983;51.114;13.788;2023-05-08T06:11:54;100334.81;;;10.31;75.56
19672;BME280;9983;51.114;13.788;2023-05-08T06:16:55;100335.97;;;10.46;74.23
19672;BME280;9983;51.114;13.788;2023-05-08T06:21:55;100323.09;;;10.68;75.43
19672;BME280;9983;51.114;13.788;2023-05-08T06:26:56;100330.28;;;10.85;71.75
19672;BME280;9983;51.114;13.788;2023-05-08T06:31:56;100335.66;;;10.85;69.89
19672;BME280;9983;51.114;13.788;2023-05-08T06:36:56;100337.75;;;10.99;70.52
19672;BME280;9983;51.114;13.788;2023-05-08T06:41:56;100348.31;;;11.18;69.33
19672;BME280;9983;51.114;13.788;2023-05-08T06:46:57;100333.88;;;11.19;66.63
19672;BME280;9983;51.114;13.788;2023-05-08T06:51:57;100340.69;;;11.39;66.05
19672;BME280;9983;51.114;13.788;2023-05-08T06:56:57;100330.31;;;11.36;62.62
19672;BME280;9983;51.114;13.788;2023-05-08T07:01:57;100328.09;;;12.00;62.62
19672;BME280;9983;51.114;13.788;2023-05-08T07:06:58;100329.63;;;12.10;61.72
19672;BME280;9983;51.114;13.788;2023-05-08T07:11:59;100325.00;;;12.37;60.63
19672;BME280;9983;51.114;13.788;2023-05-08T07:17:04;100327.94;;;12.09;58.86
19672;BME280;9983;51.114;13.788;2023-05-08T07:22:05;100324.00;;;12.78;57.44
19672;BME280;9983;51.114;13.788;2023-05-08T07:27:06;100328.34;;;12.47;54.76
19672;BME280;9983;51.114;13.788;2023-05-08T07:32:06;100328.72;;;12.84;54.88
19672;BME280;9983;51.114;13.788;2023-05-08T07:37:07;100331.09;;;12.79;53.68
19672;BME280;9983;51.114;13.788;2023-05-08T07:42:07;100328.03;;;12.90;53.84
19672;BME280;9983;51.114;13.788;2023-05-08T07:47:08;100334.03;;;13.49;53.50
19672;BME280;9983;51.114;13.788;2023-05-08T07:52:08;100323.63;;;13.38;51.65
19672;BME280;9983;51.114;13.788;2023-05-08T07:57:08;100323.69;;;14.08;52.02
19672;BME280;9983;51.114;13.788;2023-05-08T08:02:09;100313.84;;;14.15;53.17
19672;BME280;9983;51.114;13.788;2023-05-08T08:07:09;100321.13;;;14.46;49.37
19672;BME280;9983;51.114;13.788;2023-05-08T08:12:09;100318.47;;;14.37;48.38
19672;BME280;9983;51.114;13.788;2023-05-08T08:17:10;100311.25;;;14.61;47.50
19672;BME280;9983;51.114;13.788;2023-05-08T08:22:10;100302.06;;;14.70;46.75
19672;BME280;9983;51.114;13.788;2023-05-08T08:27:10;100311.38;;;15.05;47.10
19672;BME280;9983;51.114;13.788;2023-05-08T08:32:11;100314.19;;;15.26;47.16
19672;BME280;9983;51.114;13.788;2023-05-08T08:37:11;100306.56;;;15.74;45.20
19672;BME280;9983;51.114;13.788;2023-05-08T08:42:12;100310.34;;;16.09;46.97
19672;BME280;9983;51.114;13.788;2023-05-08T08:47:15;100312.38;;;15.71;46.10
19672;BME280;9983;51.114;13.788;2023-05-08T08:52:40;100308.81;;;16.21;45.68
19672;BME280;9983;51.114;13.788;2023-05-08T09:03:16;100314.16;;;16.14;55.25
19672;BME280;9983;51.114;13.788;2023-05-08T09:08:17;100305.16;;;16.64;52.49
19672;BME280;9983;51.114;13.788;2023-05-08T09:13:17;100304.97;;;16.51;52.38
19672;BME280;9983;51.114;13.788;2023-05-08T09:18:18;100307.03;;;16.92;49.61
19672;BME280;9983;51.114;13.788;2023-05-08T09:23:18;100300.75;;;16.85;51.97
19672;BME280;9983;51.114;13.788;2023-05-08T09:28:20;100295.91;;;17.08;50.72
19672;BME280;9983;51.114;13.788;2023-05-08T09:33:24;100291.09;;;17.31;50.48
19672;BME280;9983;51.114;13.788;2023-05-08T09:38:38;100291.34;;;17.36;51.39
19672;BME280;9983;51.114;13.788;2023-05-08T09:43:40;100280.81;;;17.55;48.17
19672;BME280;9983;51.114;13.788;2023-05-08T09:48:41;100284.50;;;17.40;46.47
19672;BME280;9983;51.114;13.788;2023-05-08T09:53:41;100284.84;;;18.06;46.18
19672;BME280;9983;51.114;13.788;2023-05-08T09:58:43;100286.16;;;18.43;46.57
19672;BME280;9983;51.114;13.788;2023-05-08T10:03:49;100285.59;;;18.61;43.73
19672;BME280;9983;51.114;13.788;2023-05-08T10:09:10;100272.03;;;18.61;42.97
19672;BME280;9983;51.114;13.788;2023-05-08T10:14:11;100282.06;;;18.80;42.91
19672;BME280;9983;51.114;13.788;2023-05-08T10:19:16;100269.50;;;19.19;41.86
19672;BME280;9983;51.114;13.788;2023-05-08T10:24:31;100275.28;;;19.62;40.83
19672;BME280;9983;51.114;13.788;2023-05-08T10:29:33;100273.97;;;19.78;40.85
19672;BME280;9983;51.114;13.788;2023-05-08T10:34:40;100267.66;;;19.84;39.53
19672;BME280;9983;51.114;13.788;2023-05-08T10:39:41;100252.94;;;20.67;36.74
19672;BME280;9983;51.114;13.788;2023-05-08T10:44:43;100252.75;;;21.12;38.93
19672;BME280;9983;51.114;13.788;2023-05-08T10:49:53;100246.69;;;21.89;35.34
19672;BME280;9983;51.114;13.788;2023-05-08T10:59:57;100246.69;;;22.49;33.54
19672;BME280;9983;51.114;13.788;2023-05-08T11:05:25;100247.50;;;22.80;34.56
19672;BME280;9983;51.114;13.788;2023-05-08T11:10:30;100230.13;;;23.56;34.61
19672;BME280;9983;51.114;13.788;2023-05-08T11:15:39;100227.66;;;24.11;34.32
19672;BME280;9983;51.114;13.788;2023-05-08T11:20:41;100238.19;;;23.74;32.39
19672;BME280;9983;51.114;13.788;2023-05-08T11:25:43;100236.44;;;23.96;30.56
19672;BME280;9983;51.114;13.788;2023-05-08T11:30:43;100232.91;;;24.41;31.05
19672;BME280;9983;51.114;13.788;2023-05-08T11:35:52;100222.28;;;25.11;31.87
19672;BME280;9983;51.114;13.788;2023-05-08T11:40:55;100217.56;;;24.73;32.45
19672;BME280;9983;51.114;13.788;2023-05-08T11:46:07;100222.16;;;25.18;31.65
19672;BME280;9983;51.114;13.788;2023-05-08T11:51:12;100222.78;;;26.12;30.44
19672;BME280;9983;51.114;13.788;2023-05-08T11:56:13;100220.63;;;26.14;30.05
19672;BME280;9983;51.114;13.788;2023-05-08T12:01:19;100206.16;;;26.82;27.95
19672;BME280;9983;51.114;13.788;2023-05-08T12:06:19;100212.84;;;27.34;27.48
19672;BME280;9983;51.114;13.788;2023-05-08T12:11:23;100222.47;;;26.62;27.84
19672;BME280;9983;51.114;13.788;2023-05-08T12:16:26;100212.06;;;27.43;28.01
19672;BME280;9983;51.114;13.788;2023-05-08T12:21:26;100205.19;;;27.46;28.00
19672;BME280;9983;51.114;13.788;2023-05-08T12:26:27;100205.53;;;27.12;28.71
19672;BME280;9983;51.114;13.788;2023-05-08T12:31:27;100202.59;;;26.87;29.19
19672;BME280;9983;51.114;13.788;2023-05-08T12:36:27;100206.06;;;26.40;28.90
19672;BME280;9983;51.114;13.788;2023-05-08T12:41:27;100200.97;;;26.86;28.45
19672;BME280;9983;51.114;13.788;2023-05-08T12:46:28;100204.25;;;26.24;29.04
19672;BME280;9983;51.114;13.788;2023-05-08T12:51:29;100197.53;;;27.53;27.03
19672;BME280;9983;51.114;13.788;2023-05-08T12:56:30;100203.88;;;28.36;26.21
19672;BME280;9983;51.114;13.788;2023-05-08T13:01:30;100203.31;;;28.49;26.66
19672;BME280;9983;51.114;13.788;2023-05-08T13:06:31;100191.75;;;28.93;25.49
19672;BME280;9983;51.114;13.788;2023-05-08T13:11:31;100198.84;;;29.24;25.04
19672;BME280;9983;51.114;13.788;2023-05-08T13:16:43;100202.97;;;30.11;24.51
19672;BME280;9983;51.114;13.788;2023-05-08T13:21:44;100189.44;;;29.46;24.33
19672;BME280;9983;51.114;13.788;2023-05-08T13:26:46;100179.78;;;30.75;22.88
19672;BME280;9983;51.114;13.788;2023-05-08T13:31:47;100186.31;;;30.55;23.03
19672;BME280;9983;51.114;13.788;2023-05-08T13:36:48;100179.19;;;31.12;22.59
19672;BME280;9983;51.114;13.788;2023-05-08T13:41:48;100173.38;;;31.61;22.61
19672;BME280;9983;51.114;13.788;2023-05-08T13:46:48;100167.44;;;32.62;21.36
19672;BME280;9983;51.114;13.788;2023-05-08T13:51:49;100151.03;;;31.90;21.97
19672;BME280;9983;51.114;13.788;2023-05-08T13:56:49;100156.31;;;32.29;21.73
19672;BME280;9983;51.114;13.788;2023-05-08T14:01:50;100150.94;;;30.81;22.30
19672;BME280;9983;51.114;13.788;2023-05-08T14:06:50;100146.72;;;31.60;22.33
19672;BME280;9983;51.114;13.788;2023-05-08T14:11:50;100159.13;;;31.44;22.38
19672;BME280;9983;51.114;13.788;2023-05-08T14:16:51;100149.81;;;31.35;22.19
19672;BME280;9983;51.114;13.788;2023-05-08T14:21:51;100159.97;;;31.69;22.16
19672;BME280;9983;51.114;13.788;2023-05-08T14:26:51;100152.03;;;32.18;21.18
19672;BME280;9983;51.114;13.788;2023-05-08T14:31:52;100151.81;;;31.53;22.48
19672;BME280;9983;51.114;13.788;2023-05-08T14:36:52;100136.97;;;31.44;22.03
19672;BME280;9983;51.114;13.788;2023-05-08T14:41:52;100133.59;;;32.27;21.67
19672;BME280;9983;51.114;13.788;2023-05-08T14:46:52;100130.59;;;31.67;21.49
19672;BME280;9983;51.114;13.788;2023-05-08T14:51:53;100132.53;;;32.23;21.92
19672;BME280;9983;51.114;13.788;2023-05-08T14:56:53;100123.19;;;32.52;21.13
19672;BME280;9983;51.114;13.788;2023-05-08T15:01:53;100127.81;;;33.57;19.95
19672;BME280;9983;51.114;13.788;2023-05-08T15:06:53;100134.09;;;33.49;19.94
19672;BME280;9983;51.114;13.788;2023-05-08T15:11:54;100127.50;;;33.72;20.15
19672;BME280;9983;51.114;13.788;2023-05-08T15:16:54;100115.06;;;33.01;20.39
19672;BME280;9983;51.114;13.788;2023-05-08T15:21:54;100124.09;;;33.75;19.98
19672;BME280;9983;51.114;13.788;2023-05-08T15:26:54;100115.06;;;33.01;20.10
19672;BME280;9983;51.114;13.788;2023-05-08T15:31:55;100115.91;;;31.86;20.74
19672;BME280;9983;51.114;13.788;2023-05-08T15:36:55;100108.44;;;32.70;20.62
19672;BME280;9983;51.114;13.788;2023-05-08T15:41:55;100110.09;;;32.98;20.00
19672;BME280;9983;51.114;13.788;2023-05-08T15:46:56;100109.09;;;32.94;20.41
19672;BME280;9983;51.114;13.788;2023-05-08T15:51:56;100108.91;;;33.04;19.83
19672;BME280;9983;51.114;13.788;2023-05-08T15:56:56;100112.41;;;32.31;20.46
19672;BME280;9983;51.114;13.788;2023-05-08T16:01:56;100098.66;;;31.89;20.53
19672;BME280;9983;51.114;13.788;2023-05-08T16:07:00;100101.94;;;31.91;20.53
19672;BME280;9983;51.114;13.788;2023-05-08T16:12:00;100100.72;;;31.17;20.98
19672;BME280;9983;51.114;13.788;2023-05-08T16:17:01;100078.84;;;30.91;21.56
19672;BME280;9983;51.114;13.788;2023-05-08T16:22:01;100094.28;;;29.67;22.53
19672;BME280;9983;51.114;13.788;2023-05-08T16:27:02;100097.00;;;29.08;23.56
19672;BME280;9983;51.114;13.788;2023-05-08T16:32:02;100092.56;;;27.44;25.00
19672;BME280;9983;51.114;13.788;2023-05-08T16:37:03;100086.53;;;26.16;26.68
19672;BME280;9983;51.114;13.788;2023-05-08T16:42:03;100090.34;;;24.74;29.19
19672;BME280;9983;51.114;13.788;2023-05-08T16:47:05;100084.06;;;24.57;29.44
19672;BME280;9983;51.114;13.788;2023-05-08T16:52:05;100089.53;;;23.33;31.33
19672;BME280;9983;51.114;13.788;2023-05-08T16:57:05;100092.72;;;23.42;30.89
19672;BME280;9983;51.114;13.788;2023-05-08T17:02:06;100092.03;;;23.35;31.92
19672;BME280;9983;51.114;13.788;2023-05-08T17:07:06;100090.03;;;23.19;31.99
19672;BME280;9983;51.114;13.788;2023-05-08T17:12:07;100093.41;;;22.86;33.14
19672;BME280;9983;51.114;13.788;2023-05-08T17:17:07;100104.47;;;22.32;33.29
19672;BME280;9983;51.114;13.788;2023-05-08T17:22:08;100092.72;;;21.90;33.95
19672;BME280;9983;51.114;13.788;2023-05-08T17:27:08;100104.03;;;21.64;34.57
19672;BME280;9983;51.114;13.788;2023-05-08T17:32:08;100109.88;;;21.19;35.22
19672;BME280;9983;51.114;13.788;2023-05-08T17:37:09;100109.34;;;20.50;36.38
19672;BME280;9983;51.114;13.788;2023-05-08T17:42:09;100111.56;;;20.34;37.09
19672;BME280;9983;51.114;13.788;2023-05-08T17:47:09;100113.00;;;20.12;37.41
19672;BME280;9983;51.114;13.788;2023-05-08T17:52:09;100113.56;;;19.89;38.21
19672;BME280;9983;51.114;13.788;2023-05-08T17:57:10;100120.44;;;19.60;38.82
19672;BME280;9983;51.114;13.788;2023-05-08T18:02:10;100123.47;;;19.39;39.81
19672;BME280;9983;51.114;13.788;2023-05-08T18:07:10;100130.22;;;19.17;40.56
19672;BME280;9983;51.114;13.788;2023-05-08T18:12:10;100122.69;;;19.19;41.35
19672;BME280;9983;51.114;13.788;2023-05-08T18:17:11;100143.75;;;18.59;42.60
19672;BME280;9983;51.114;13.788;2023-05-08T18:22:14;100140.81;;;18.41;43.29
19672;BME280;9983;51.114;13.788;2023-05-08T18:27:14;100146.47;;;18.72;42.36
19672;BME280;9983;51.114;13.788;2023-05-08T18:32:15;100144.16;;;18.69;42.61
19672;BME280;9983;51.114;13.788;2023-05-08T18:37:15;100141.66;;;18.15;43.99
19672;BME280;9983;51.114;13.788;2023-05-08T18:42:15;100145.59;;;18.12;44.18
19672;BME280;9983;51.114;13.788;2023-05-08T18:47:16;100148.94;;;18.28;44.21
19672;BME280;9983;51.114;13.788;2023-05-08T18:52:16;100144.13;;;18.10;44.80
19672;BME280;9983;51.114;13.788;2023-05-08T18:57:16;100144.09;;;17.77;45.68
19672;BME280;9983;51.114;13.788;2023-05-08T19:02:16;100147.84;;;17.76;45.91
19672;BME280;9983;51.114;13.788;2023-05-08T19:07:17;100165.97;;;17.69;46.27
19672;BME280;9983;51.114;13.788;2023-05-08T19:12:17;100161.88;;;17.38;47.47
19672;BME280;9983;51.114;13.788;2023-05-08T19:17:17;100170.22;;;17.43;47.51
19672;BME280;9983;51.114;13.788;2023-05-08T19:22:18;100163.97;;;17.02;47.84
19672;BME280;9983;51.114;13.788;2023-05-08T19:27:18;100174.66;;;17.10;48.03
19672;BME280;9983;51.114;13.788;2023-05-08T19:32:18;100175.94;;;17.14;48.05
19672;BME280;9983;51.114;13.788;2023-05-08T19:37:18;100178.72;;;16.93;48.72
19672;BME280;9983;51.114;13.788;2023-05-08T19:42:19;100169.56;;;16.94;48.54
19672;BME280;9983;51.114;13.788;2023-05-08T19:47:20;100166.28;;;16.71;49.04
19672;BME280;9983;51.114;13.788;2023-05-08T19:52:20;100169.25;;;16.54;49.75
19672;BME280;9983;51.114;13.788;2023-05-08T19:57:20;100174.44;;;16.28;49.85
19672;BME280;9983;51.114;13.788;2023-05-08T20:02:21;100170.97;;;16.13;50.50
19672;BME280;9983;51.114;13.788;2023-05-08T20:07:21;100173.03;;;16.11;50.64
19672;BME280;9983;51.114;13.788;2023-05-08T20:12:21;100180.22;;;16.25;50.25
19672;BME280;9983;51.114;13.788;2023-05-08T20:17:21;100174.81;;;16.25;49.67
19672;BME280;9983;51.114;13.788;2023-05-08T20:22:22;100174.44;;;15.85;51.05
19672;BME280;9983;51.114;13.788;2023-05-08T20:27:22;100178.69;;;15.94;50.66
19672;BME280;9983;51.114;13.788;2023-05-08T20:32:22;100184.34;;;15.78;51.91
19672;BME280;9983;51.114;13.788;2023-05-08T20:37:22;100169.81;;;15.79;51.51
19672;BME280;9983;51.114;13.788;2023-05-08T20:42:23;100179.31;;;15.75;51.73
19672;BME280;9983;51.114;13.788;2023-05-08T20:47:23;100172.03;;;15.54;51.76
19672;BME280;9983;51.114;13.788;2023-05-08T20:52:23;100171.84;;;15.27;52.52
19672;BME280;9983;51.114;13.788;2023-05-08T20:57:24;100180.31;;;15.24;53.17
19672;BME280;9983;51.114;13.788;2023-05-08T21:02:24;100184.91;;;14.94;54.38
19672;BME280;9983;51.114;13.788;2023-05-08T21:07:24;100172.13;;;14.73;55.76
19672;BME280;9983;51.114;13.788;2023-05-08T21:12:25;100168.94;;;14.55;56.52
19672;BME280;9983;51.114;13.788;2023-05-08T21:17:26;100171.00;;;14.30;58.83
19672;BME280;9983;51.114;13.788;2023-05-08T21:22:26;100181.44;;;13.56;61.99
19672;BME280;9983;51.114;13.788;2023-05-08T21:27:26;100173.44;;;13.40;66.07
19672;BME280;9983;51.114;13.788;2023-05-08T21:32:26;100166.28;;;13.63;63.94
19672;BME280;9983;51.114;13.788;2023-05-08T21:37:26;100161.59;;;12.71;65.99
19672;BME280;9983;51.114;13.788;2023-05-08T21:42:27;100159.09;;;13.09;65.65
19672;BME280;9983;51.114;13.788;2023-05-08T21:47:27;100158.28;;;12.37;69.86
19672;BME280;9983;51.114;13.788;2023-05-08T21:52:27;100171.03;;;12.51;69.05
19672;BME280;9983;51.114;13.788;2023-05-08T21:57:27;100162.22;;;12.73;66.42
19672;BME280;9983;51.114;13.788;2023-05-08T22:02:28;100162.94;;;12.59;67.93
19672;BME280;9983;51.114;13.788;2023-05-08T22:07:28;100161.63;;;12.23;69.44
19672;BME280;9983;51.114;13.788;2023-05-08T22:12:28;100162.16;;;12.10;72.49
19672;BME280;9983;51.114;13.788;2023-05-08T22:17:28;100162.97;;;11.86;71.89
19672;BME280;9983;51.114;13.788;2023-05-08T22:22:29;100162.81;;;11.88;73.47
19672;BME280;9983;51.114;13.788;2023-05-08T22:27:29;100158.94;;;11.82;73.68
19672;BME280;9983;51.114;13.788;2023-05-08T22:32:30;100152.22;;;11.78;72.70
19672;BME280;9983;51.114;13.788;2023-05-08T22:37:30;100146.88;;;11.94;71.87
19672;BME280;9983;51.114;13.788;2023-05-08T22:42:30;100142.06;;;11.56;73.37
19672;BME280;9983;51.114;13.788;2023-05-08T22:47:32;100142.91;;;11.56;72.31
19672;BME280;9983;51.114;13.788;2023-05-08T22:52:33;100142.69;;;11.33;75.60
19672;BME280;9983;51.114;13.788;2023-05-08T22:57:34;100133.72;;;11.09;76.99
19672;BME280;9983;51.114;13.788;2023-05-08T23:02:34;100140.28;;;11.22;75.21
19672;BME280;9983;51.114;13.788;2023-05-08T23:07:35;100134.94;;;11.22;76.06
19672;BME280;9983;51.114;13.788;2023-05-08T23:12:35;100136.63;;;11.31;71.85
19672;BME280;9983;51.114;13.788;2023-05-08T23:17:36;100131.25;;;11.23;71.92
19672;BME280;9983;51.114;13.788;2023-05-08T23:22:36;100135.91;;;11.13;71.81
19672;BME280;9983;51.114;13.788;2023-05-08T23:27:37;100133.00;;;10.64;76.68
19672;BME280;9983;51.114;13.788;2023-05-08T23:32:38;100138.47;;;10.89;75.42
19672;BME280;9983;51.114;13.788;2023-05-08T23:37:38;100131.91;;;11.17;71.42
19672;BME280;9983;51.114;13.788;2023-05-08T23:42:38;100126.50;;;11.09;71.29
19672;BME280;9983;51.114;13.788;2023-05-08T23:47:39;100123.00;;;11.17;71.07
19672;BME280;9983;51.114;13.788;2023-05-08T23:52:40;100131.53;;;11.04;70.23
19672;BME280;9983;51.114;13.788;2023-05-08T23:57:40;100122.72;;;10.86;73.17
